Time;durP1;ratioP1;P1;durP2;ratioP2;P2;SDS_P1;SDS_P2;PMS_P1;PMS_P2;Temp;Humidity;BMP_temperature;BMP_pressure;BME280_temperature;BME280_humidity;BME280_pressure;Samples;Min_cycle;Max_cycle;Signal;HPM_P1;HPM_P2
2021/07/10 00:02:00;;;;;;;16.42;9.48;;;;;;;;;;5021352;28;20107;-45
2021/07/10 00:04:29;;;;;;;15.85;5.68;;;;;;;;;;5021172;28;20049;-45
2021/07/10 00:06:59;;;;;;;4.88;3.63;;;;;;;;;;5021012;28;20037;-45
2021/07/10 00:09:26;;;;;;;7.80;3.60;;;;;;;;;;5022032;28;20205;-45
2021/07/10 00:11:52;;;;;;;6.03;3.40;;;;;;;;;;5022062;28;20048;-45
2021/07/10 00:14:19;;;;;;;14.95;8.18;;;;;;;;;;5021727;28;20024;-45
2021/07/10 00:16:45;;;;;;;11.00;5.95;;;;;;;;;;5025049;28;20840;-45
2021/07/10 00:19:11;;;;;;;29.58;14.13;;;;;;;;;;5025362;28;20693;-45
2021/07/10 00:21:37;;;;;;;60.95;37.33;;;;;;;;;;5025154;28;20044;-45
2021/07/10 00:24:04;;;;;;;22.52;13.43;;;;;;;;;;5024758;28;20342;-45
2021/07/10 00:26:30;;;;;;;32.60;14.50;;;;;;;;;;5024938;28;20104;-44
2021/07/10 00:28:56;;;;;;;21.52;14.13;;;;;;;;;;5025327;28;20398;-45
2021/07/10 00:31:22;;;;;;;27.13;15.80;;;;;;;;;;5024730;28;20029;-45
2021/07/10 00:33:48;;;;;;;38.35;24.13;;;;;;;;;;5025607;28;20033;-45
2021/07/10 00:36:14;;;;;;;17.17;11.30;;;;;;;;;;5024687;28;20496;-45
2021/07/10 00:38:41;;;;;;;9.75;5.95;;;;;;;;;;5024822;28;20032;-46
2021/07/10 00:41:07;;;;;;;16.85;8.80;;;;;;;;;;5024841;28;20094;-46
2021/07/10 00:43:33;;;;;;;48.60;30.10;;;;;;;;;;5024652;28;20402;-46
2021/07/10 00:45:59;;;;;;;89.82;57.60;;;;;;;;;;5024346;28;20033;-45
2021/07/10 00:48:25;;;;;;;24.58;15.95;;;;;;;;;;5024383;28;20064;-46
2021/07/10 00:50:51;;;;;;;15.55;8.15;;;;;;;;;;5024326;28;20529;-46
2021/07/10 00:53:18;;;;;;;15.13;9.63;;;;;;;;;;5024366;28;20352;-45
2021/07/10 00:55:44;;;;;;;17.00;9.70;;;;;;;;;;5028265;28;20036;-45
2021/07/10 00:58:11;;;;;;;28.00;15.43;;;;;;;;;;5028885;28;20040;-47
2021/07/10 01:00:39;;;;;;;6.72;4.50;;;;;;;;;;5030402;28;20072;-45
2021/07/10 01:03:05;;;;;;;18.95;12.15;;;;;;;;;;5029886;28;20380;-46
2021/07/10 01:05:34;;;;;;;16.83;11.63;;;;;;;;;;5031939;28;20025;-45
2021/07/10 01:08:00;;;;;;;15.75;9.10;;;;;;;;;;5023877;28;20100;-46
2021/07/10 01:10:26;;;;;;;63.42;42.15;;;;;;;;;;5024243;28;20446;-45
2021/07/10 01:12:54;;;;;;;8.75;5.88;;;;;;;;;;5023691;28;20025;-45
2021/07/10 01:15:25;;;;;;;4.05;2.95;;;;;;;;;;5058828;28;20512;-45
2021/07/10 01:17:51;;;;;;;17.77;11.85;;;;;;;;;;5075788;28;20032;-45
2021/07/10 01:20:18;;;;;;;23.00;18.33;;;;;;;;;;5075768;28;20545;-47
2021/07/10 01:22:45;;;;;;;27.00;18.77;;;;;;;;;;5075587;28;20028;-45
2021/07/10 01:25:13;;;;;;;14.73;10.15;;;;;;;;;;5075471;28;20032;-45
2021/07/10 01:27:40;;;;;;;19.23;12.75;;;;;;;;;;5075689;28;20027;-45
2021/07/10 01:30:08;;;;;;;6.80;5.80;;;;;;;;;;5075780;28;20073;-45
2021/07/10 01:32:34;;;;;;;4.32;3.20;;;;;;;;;;5075873;28;20520;-46
2021/07/10 01:35:00;;;;;;;9.25;4.80;;;;;;;;;;5075799;28;20031;-46
2021/07/10 01:37:26;;;;;;;6.80;3.22;;;;;;;;;;5028519;28;20021;-46
2021/07/10 01:39:52;;;;;;;6.63;3.70;;;;;;;;;;5020017;28;20152;-45
2021/07/10 01:42:19;;;;;;;5.28;3.55;;;;;;;;;;5020341;28;20029;-45
2021/07/10 01:44:46;;;;;;;6.00;3.55;;;;;;;;;;5019868;28;20474;-45
2021/07/10 01:47:12;;;;;;;8.57;5.53;;;;;;;;;;5020540;28;20841;-44
2021/07/10 01:49:38;;;;;;;16.52;11.93;;;;;;;;;;5019978;28;20045;-45
2021/07/10 01:52:04;;;;;;;9.18;6.65;;;;;;;;;;5020065;28;20021;-45
2021/07/10 01:54:30;;;;;;;7.63;5.70;;;;;;;;;;5020227;28;20304;-45
2021/07/10 01:56:56;;;;;;;6.60;4.85;;;;;;;;;;5019738;28;20029;-44
2021/07/10 01:59:22;;;;;;;6.50;4.38;;;;;;;;;;5020066;28;20021;-45
2021/07/10 02:01:50;;;;;;;5.20;3.80;;;;;;;;;;5019493;28;20045;-44
2021/07/10 02:04:20;;;;;;;6.57;5.55;;;;;;;;;;5020134;28;20029;-44
2021/07/10 02:06:47;;;;;;;22.00;11.88;;;;;;;;;;5019758;28;20026;-45
2021/07/10 02:09:14;;;;;;;23.42;14.73;;;;;;;;;;5020124;28;20055;-45
2021/07/10 02:11:50;;;;;;;30.02;16.23;;;;;;;;;;5019416;28;20107;-44
2021/07/10 02:14:17;;;;;;;8.77;6.10;;;;;;;;;;5027059;28;20032;-46
2021/07/10 02:16:43;;;;;;;6.93;5.05;;;;;;;;;;5055005;28;20086;-45
2021/07/10 02:19:09;;;;;;;9.02;5.22;;;;;;;;;;5054876;28;20529;-45
2021/07/10 02:21:36;;;;;;;8.15;5.32;;;;;;;;;;5054747;28;20496;-47
2021/07/10 02:24:02;;;;;;;11.20;5.20;;;;;;;;;;5054738;28;20087;-46
2021/07/10 02:26:28;;;;;;;8.60;5.03;;;;;;;;;;5054767;28;20021;-47
2021/07/10 02:28:55;;;;;;;11.52;5.65;;;;;;;;;;5054735;28;20017;-47
2021/07/10 02:31:21;;;;;;;10.45;4.90;;;;;;;;;;5054921;28;20388;-46
2021/07/10 02:33:47;;;;;;;6.80;5.22;;;;;;;;;;5054681;28;20024;-47
2021/07/10 02:36:13;;;;;;;10.20;5.00;;;;;;;;;;5054381;28;20053;-47
2021/07/10 02:38:39;;;;;;;9.45;4.65;;;;;;;;;;5053974;28;20025;-46
2021/07/10 02:41:05;;;;;;;5.90;4.30;;;;;;;;;;5053513;28;20086;-47
2021/07/10 02:43:31;;;;;;;5.68;4.00;;;;;;;;;;5054423;28;20013;-47
2021/07/10 02:45:58;;;;;;;7.43;3.63;;;;;;;;;;5054281;28;20036;-48
2021/07/10 02:48:24;;;;;;;7.47;3.53;;;;;;;;;;5054283;28;20032;-47
2021/07/10 02:50:50;;;;;;;3.55;2.70;;;;;;;;;;5054391;28;20024;-47
2021/07/10 02:53:16;;;;;;;10.45;3.30;;;;;;;;;;5054532;28;20099;-47
2021/07/10 02:55:44;;;;;;;3.00;2.50;;;;;;;;;;5054199;28;20097;-47
2021/07/10 02:58:10;;;;;;;3.72;2.67;;;;;;;;;;5054108;28;20033;-47
2021/07/10 03:00:36;;;;;;;4.72;2.80;;;;;;;;;;5053842;28;20029;-47
2021/07/10 03:03:03;;;;;;;2.88;2.53;;;;;;;;;;5054096;28;20025;-46
2021/07/10 03:05:29;;;;;;;4.93;2.30;;;;;;;;;;5053954;28;20028;-47
2021/07/10 03:07:55;;;;;;;3.60;2.25;;;;;;;;;;5054144;28;20393;-47
2021/07/10 03:10:25;;;;;;;2.85;1.90;;;;;;;;;;5054211;28;20067;-47
2021/07/10 03:12:51;;;;;;;2.53;1.98;;;;;;;;;;5053936;28;20048;-46
2021/07/10 03:15:17;;;;;;;2.85;1.77;;;;;;;;;;5053648;28;20093;-46
2021/07/10 03:17:44;;;;;;;6.22;1.90;;;;;;;;;;5053881;28;20086;-47
2021/07/10 03:20:12;;;;;;;2.20;1.77;;;;;;;;;;5053719;28;20021;-45
2021/07/10 03:22:38;;;;;;;3.53;1.80;;;;;;;;;;5053932;28;20411;-47
2021/07/10 03:25:06;;;;;;;2.20;1.40;;;;;;;;;;5053723;28;20017;-46
2021/07/10 03:27:32;;;;;;;1.30;1.20;;;;;;;;;;5053704;28;20025;-46
2021/07/10 03:29:58;;;;;;;5.28;1.20;;;;;;;;;;5053654;28;20370;-46
2021/07/10 03:32:24;;;;;;;5.63;1.35;;;;;;;;;;5053596;28;20047;-45
2021/07/10 03:34:51;;;;;;;4.50;1.02;;;;;;;;;;5053619;28;20049;-45
2021/07/10 03:37:17;;;;;;;3.95;1.20;;;;;;;;;;5053418;28;20032;-46
2021/07/10 03:39:43;;;;;;;1.20;1.00;;;;;;;;;;5053565;28;20051;-47
2021/07/10 03:42:09;;;;;;;8.18;1.25;;;;;;;;;;5053381;28;20091;-46
2021/07/10 03:44:36;;;;;;;3.08;0.95;;;;;;;;;;5053212;28;20021;-47
2021/07/10 03:47:02;;;;;;;3.13;1.00;;;;;;;;;;5053421;28;20090;-46
2021/07/10 03:49:28;;;;;;;2.60;1.08;;;;;;;;;;5052464;28;20100;-46
2021/07/10 03:51:54;;;;;;;1.73;0.90;;;;;;;;;;5053228;28;20060;-46
2021/07/10 03:54:20;;;;;;;2.33;1.17;;;;;;;;;;5053348;28;20496;-47
2021/07/10 03:56:46;;;;;;;1.90;1.20;;;;;;;;;;5053366;28;20059;-45
2021/07/10 03:59:12;;;;;;;6.15;2.00;;;;;;;;;;5053209;28;20071;-46
2021/07/10 04:01:41;;;;;;;7.45;1.00;;;;;;;;;;5053169;28;20508;-47
2021/07/10 04:04:08;;;;;;;1.67;1.05;;;;;;;;;;5053346;28;20017;-46
2021/07/10 04:06:35;;;;;;;2.95;1.00;;;;;;;;;;5053103;28;20447;-46
2021/07/10 04:09:01;;;;;;;6.20;0.98;;;;;;;;;;5053328;28;20021;-46
2021/07/10 04:11:28;;;;;;;3.38;1.05;;;;;;;;;;5053223;28;20106;-47
2021/07/10 04:13:56;;;;;;;2.00;1.20;;;;;;;;;;5053143;28;20017;-46
2021/07/10 04:16:22;;;;;;;3.92;0.82;;;;;;;;;;5051780;28;20075;-46
2021/07/10 04:18:48;;;;;;;4.20;0.98;;;;;;;;;;5053078;28;20021;-46
2021/07/10 04:21:14;;;;;;;5.75;1.00;;;;;;;;;;5053014;28;20029;-44
2021/07/10 04:23:41;;;;;;;8.70;1.00;;;;;;;;;;5053335;28;20048;-45
2021/07/10 04:26:07;;;;;;;2.53;0.90;;;;;;;;;;5053627;28;20450;-45
2021/07/10 04:28:33;;;;;;;6.25;0.98;;;;;;;;;;5053098;28;20052;-47
2021/07/10 04:30:59;;;;;;;0.75;0.73;;;;;;;;;;5053006;28;20060;-45
2021/07/10 04:33:25;;;;;;;1.88;0.80;;;;;;;;;;5053044;28;20063;-46
2021/07/10 04:35:53;;;;;;;0.70;0.70;;;;;;;;;;5052952;28;20048;-46
2021/07/10 04:38:20;;;;;;;4.57;1.52;;;;;;;;;;5052904;28;20029;-46
2021/07/10 04:40:47;;;;;;;3.25;0.95;;;;;;;;;;5053031;28;20036;-46
2021/07/10 04:43:13;;;;;;;3.55;0.80;;;;;;;;;;5052982;28;20025;-45
2021/07/10 04:45:39;;;;;;;1.10;0.95;;;;;;;;;;5052663;28;20041;-45
2021/07/10 04:48:05;;;;;;;3.40;1.30;;;;;;;;;;5052902;28;20083;-45
2021/07/10 04:50:32;;;;;;;4.65;0.90;;;;;;;;;;5052687;28;20063;-47
2021/07/10 04:52:58;;;;;;;29.27;17.67;;;;;;;;;;5052700;28;20032;-46
2021/07/10 04:55:24;;;;;;;14.93;7.68;;;;;;;;;;5052855;28;20056;-46
2021/07/10 04:57:50;;;;;;;3.80;2.67;;;;;;;;;;5052577;28;20458;-46
2021/07/10 05:00:17;;;;;;;1.20;1.00;;;;;;;;;;5053393;28;20075;-45
2021/07/10 05:02:44;;;;;;;4.63;0.98;;;;;;;;;;5056194;28;20025;-45
2021/07/10 05:05:11;;;;;;;2.08;1.30;;;;;;;;;;5056163;28;20104;-44
2021/07/10 05:07:37;;;;;;;6.75;1.55;;;;;;;;;;5056238;28;20029;-46
2021/07/10 05:10:04;;;;;;;7.13;1.08;;;;;;;;;;5056186;28;20024;-45
2021/07/10 05:12:30;;;;;;;3.17;0.98;;;;;;;;;;5054712;28;20455;-46
2021/07/10 05:14:56;;;;;;;5.72;0.88;;;;;;;;;;5055775;28;20039;-45
2021/07/10 05:17:23;;;;;;;1.08;0.70;;;;;;;;;;5056058;28;20033;-46
2021/07/10 05:19:49;;;;;;;1.17;0.57;;;;;;;;;;5055985;28;20078;-46
2021/07/10 05:22:15;;;;;;;1.02;0.60;;;;;;;;;;5055759;28;20079;-46
2021/07/10 05:24:41;;;;;;;3.25;0.70;;;;;;;;;;5056118;28;20025;-46
2021/07/10 05:27:08;;;;;;;1.88;0.80;;;;;;;;;;5056013;28;20095;-45
2021/07/10 05:29:34;;;;;;;0.88;0.52;;;;;;;;;;5055767;28;20013;-45
2021/07/10 05:32:00;;;;;;;2.13;0.65;;;;;;;;;;5055798;28;20028;-45
2021/07/10 05:34:27;;;;;;;2.80;0.50;;;;;;;;;;5055746;28;20021;-45
2021/07/10 05:36:53;;;;;;;2.85;1.05;;;;;;;;;;5055586;28;20481;-46
2021/07/10 05:39:19;;;;;;;1.73;0.82;;;;;;;;;;5055781;28;20401;-45
2021/07/10 05:41:47;;;;;;;2.13;0.50;;;;;;;;;;5055482;28;20029;-45
2021/07/10 05:44:13;;;;;;;2.28;0.45;;;;;;;;;;5055417;28;20036;-45
2021/07/10 05:46:39;;;;;;;3.88;0.68;;;;;;;;;;5055388;28;20517;-47
2021/07/10 05:49:05;;;;;;;4.97;0.80;;;;;;;;;;5055457;28;20029;-46
2021/07/10 05:51:31;;;;;;;3.08;0.50;;;;;;;;;;5055332;28;20029;-46
2021/07/10 05:53:57;;;;;;;3.92;0.55;;;;;;;;;;5055434;28;20053;-45
2021/07/10 05:56:23;;;;;;;4.60;0.75;;;;;;;;;;5055250;28;20488;-47
2021/07/10 05:58:49;;;;;;;2.03;0.50;;;;;;;;;;5055136;28;20075;-46
2021/07/10 06:01:15;;;;;;;4.80;0.40;;;;;;;;;;5055109;28;20033;-44
2021/07/10 06:03:41;;;;;;;1.30;0.40;;;;;;;;;;5055064;28;20017;-45
2021/07/10 06:06:07;;;;;;;2.30;0.80;;;;;;;;;;5055003;28;20068;-44
2021/07/10 06:08:34;;;;;;;1.75;0.55;;;;;;;;;;5055167;28;20028;-44
2021/07/10 06:11:00;;;;;;;4.38;0.70;;;;;;;;;;5055124;28;20047;-46
2021/07/10 06:13:26;;;;;;;3.80;0.40;;;;;;;;;;5054125;28;20013;-46
2021/07/10 06:15:52;;;;;;;2.65;0.55;;;;;;;;;;5054495;28;20103;-46
2021/07/10 06:18:19;;;;;;;2.42;0.40;;;;;;;;;;5054962;28;20025;-47
2021/07/10 06:20:45;;;;;;;1.17;0.70;;;;;;;;;;5054707;28;20035;-47
2021/07/10 06:23:11;;;;;;;5.90;0.70;;;;;;;;;;5054688;28;20025;-46
2021/07/10 06:25:38;;;;;;;1.02;0.40;;;;;;;;;;5054803;28;20470;-47
2021/07/10 06:28:05;;;;;;;3.83;0.80;;;;;;;;;;5054717;28;20033;-46
2021/07/10 06:30:31;;;;;;;1.55;0.40;;;;;;;;;;5054595;28;20092;-47
2021/07/10 06:32:57;;;;;;;1.75;0.45;;;;;;;;;;5054707;28;20051;-47
2021/07/10 06:35:23;;;;;;;1.02;0.30;;;;;;;;;;5054522;28;20522;-45
2021/07/10 06:37:50;;;;;;;4.07;0.68;;;;;;;;;;5054411;28;20037;-47
2021/07/10 06:40:16;;;;;;;1.63;0.70;;;;;;;;;;5054447;28;20099;-47
2021/07/10 06:42:42;;;;;;;1.70;0.50;;;;;;;;;;5054527;28;20029;-46
2021/07/10 06:45:10;;;;;;;2.22;0.52;;;;;;;;;;5053255;28;20037;-47
2021/07/10 06:47:36;;;;;;;1.13;0.50;;;;;;;;;;5054290;28;20025;-46
2021/07/10 06:50:03;;;;;;;41.17;27.77;;;;;;;;;;5054210;28;20066;-47
2021/07/10 06:52:30;;;;;;;46.15;28.48;;;;;;;;;;5054127;28;20485;-46
2021/07/10 06:54:56;;;;;;;11.15;6.90;;;;;;;;;;5054214;28;20075;-46
2021/07/10 06:57:22;;;;;;;17.60;11.07;;;;;;;;;;5054294;28;20420;-47
2021/07/10 06:59:48;;;;;;;47.47;27.58;;;;;;;;;;5054105;28;20021;-46
2021/07/10 07:02:14;;;;;;;20.63;12.38;;;;;;;;;;5054055;28;20033;-46
2021/07/10 07:04:40;;;;;;;25.85;15.27;;;;;;;;;;5053987;28;20025;-46
2021/07/10 07:07:07;;;;;;;3.25;2.60;;;;;;;;;;5053942;28;20099;-46
2021/07/10 07:09:33;;;;;;;6.05;1.10;;;;;;;;;;5054108;28;20377;-46
2021/07/10 07:11:59;;;;;;;5.88;0.60;;;;;;;;;;5053891;28;20040;-46
2021/07/10 07:14:25;;;;;;;2.10;0.90;;;;;;;;;;5053530;28;20048;-46
2021/07/10 07:16:52;;;;;;;10.68;6.53;;;;;;;;;;5053726;28;20037;-45
2021/07/10 07:19:18;;;;;;;24.38;12.98;;;;;;;;;;5053844;28;20021;-46
2021/07/10 07:21:44;;;;;;;16.45;9.38;;;;;;;;;;5053484;28;20095;-47
2021/07/10 07:24:10;;;;;;;6.63;4.22;;;;;;;;;;5053434;28;20021;-46
2021/07/10 07:26:36;;;;;;;3.97;1.75;;;;;;;;;;5053665;28;20099;-46
2021/07/10 07:29:03;;;;;;;7.95;1.35;;;;;;;;;;5053666;28;20028;-45
2021/07/10 07:31:29;;;;;;;5.03;1.35;;;;;;;;;;5053416;28;20040;-46
2021/07/10 07:33:55;;;;;;;3.80;1.27;;;;;;;;;;5053599;28;20035;-45
2021/07/10 07:36:24;;;;;;;4.25;1.10;;;;;;;;;;5053607;28;20033;-46
2021/07/10 07:38:50;;;;;;;4.60;1.33;;;;;;;;;;5053641;28;20086;-46
2021/07/10 07:41:18;;;;;;;4.63;1.13;;;;;;;;;;5053514;28;20025;-46
2021/07/10 07:43:44;;;;;;;4.65;1.52;;;;;;;;;;5053066;28;20025;-46
2021/07/10 07:46:13;;;;;;;5.32;1.30;;;;;;;;;;5053093;28;20390;-45
2021/07/10 07:48:39;;;;;;;5.43;1.30;;;;;;;;;;5052680;28;20477;-45
2021/07/10 07:51:05;;;;;;;5.95;1.30;;;;;;;;;;5052559;28;20020;-45
2021/07/10 07:53:32;;;;;;;6.93;1.58;;;;;;;;;;5052723;28;20036;-46
2021/07/10 07:55:58;;;;;;;3.78;1.58;;;;;;;;;;5052747;28;20025;-46
2021/07/10 07:58:24;;;;;;;5.70;2.25;;;;;;;;;;5052760;28;20134;-45
2021/07/10 08:00:50;;;;;;;43.05;25.05;;;;;;;;;;5052309;28;20064;-44
2021/07/10 08:03:16;;;;;;;10.85;6.30;;;;;;;;;;5052585;28;20029;-47
2021/07/10 08:05:42;;;;;;;25.00;15.27;;;;;;;;;;5052589;28;20028;-46
2021/07/10 08:08:08;;;;;;;14.05;5.18;;;;;;;;;;5052604;28;20053;-46
2021/07/10 08:10:34;;;;;;;18.02;9.52;;;;;;;;;;5052595;28;20056;-46
2021/07/10 08:13:00;;;;;;;8.95;3.17;;;;;;;;;;5052449;28;20022;-46
2021/07/10 08:15:27;;;;;;;23.52;13.93;;;;;;;;;;5052237;28;20493;-44
2021/07/10 08:17:53;;;;;;;39.17;18.00;;;;;;;;;;5052426;28;20103;-46
2021/07/10 08:20:21;;;;;;;11.13;4.38;;;;;;;;;;5052446;28;20029;-46
2021/07/10 08:22:47;;;;;;;63.38;37.33;;;;;;;;;;5052404;28;20409;-46
2021/07/10 08:25:14;;;;;;;27.20;16.77;;;;;;;;;;5052363;28;20024;-45
2021/07/10 08:27:41;;;;;;;8.93;3.72;;;;;;;;;;5052407;28;20531;-44
2021/07/10 08:30:08;;;;;;;12.05;6.25;;;;;;;;;;5052287;28;20512;-44
2021/07/10 08:32:34;;;;;;;23.35;15.70;;;;;;;;;;5052185;28;20024;-44
2021/07/10 08:35:00;;;;;;;7.63;3.65;;;;;;;;;;5052717;28;20029;-44
2021/07/10 08:37:26;;;;;;;22.45;8.82;;;;;;;;;;5056147;28;20369;-44
2021/07/10 08:39:53;;;;;;;16.17;10.55;;;;;;;;;;5056427;28;20106;-44
2021/07/10 08:42:19;;;;;;;5.53;3.63;;;;;;;;;;5037159;28;20037;-44
2021/07/10 08:44:50;;;;;;;10.00;3.53;;;;;;;;;;5036468;28;20155;-43
2021/07/10 08:47:16;;;;;;;;;;;;;;;;;;5036959;28;20490;-44
2021/07/10 08:49:42;;;;;;;42.30;25.17;;;;;;;;;;5036565;28;19905;-45
2021/07/10 08:52:08;;;;;;;22.80;13.07;;;;;;;;;;5036513;28;20474;-44
2021/07/10 08:54:35;;;;;;;19.88;8.07;;;;;;;;;;5036568;28;20029;-43
2021/07/10 08:57:01;;;;;;;21.17;10.70;;;;;;;;;;5036511;28;20018;-44
2021/07/10 08:59:27;;;;;;;56.38;32.75;;;;;;;;;;5036470;28;20053;-43
2021/07/10 09:01:54;;;;;;;56.10;35.05;;;;;;;;;;5036074;28;20041;-42
2021/07/10 09:04:21;;;;;;;42.92;23.08;;;;;;;;;;5036326;28;20091;-43
2021/07/10 09:06:47;;;;;;;15.20;8.30;;;;;;;;;;5036231;28;20405;-42
2021/07/10 09:09:13;;;;;;;10.27;2.47;;;;;;;;;;5035918;28;20025;-43
2021/07/10 09:11:39;;;;;;;10.80;4.57;;;;;;;;;;5049978;28;20420;-42
2021/07/10 09:14:05;;;;;;;9.45;5.43;;;;;;;;;;5055777;28;20044;-42
2021/07/10 09:16:32;;;;;;;132.70;80.60;;;;;;;;;;5055903;28;20076;-45
2021/07/10 09:19:09;;;;;;;201.68;131.13;;;;;;;;;;5056021;28;20021;-45
2021/07/10 09:21:44;;;;;;;125.40;77.80;;;;;;;;;;5055810;28;20453;-45
2021/07/10 09:24:15;;;;;;;81.93;52.45;;;;;;;;;;5055884;28;20090;-44
2021/07/10 09:26:43;;;;;;;20.85;12.77;;;;;;;;;;5055890;28;20029;-45
2021/07/10 09:29:11;;;;;;;6.07;4.15;;;;;;;;;;5055677;28;20505;-45
2021/07/10 09:31:47;;;;;;;3.28;2.70;;;;;;;;;;5055680;28;20056;-47
2021/07/10 09:34:15;;;;;;;10.48;3.28;;;;;;;;;;5055588;28;20470;-45
2021/07/10 09:36:52;;;;;;;78.50;28.33;;;;;;;;;;5055675;28;20032;-44
2021/07/10 09:39:18;;;;;;;115.32;36.78;;;;;;;;;;5055691;28;20021;-45
2021/07/10 09:41:45;;;;;;;59.95;20.30;;;;;;;;;;5055487;28;20031;-45
2021/07/10 09:44:12;;;;;;;7.68;4.20;;;;;;;;;;5055432;28;20021;-45
2021/07/10 09:46:39;;;;;;;31.33;10.40;;;;;;;;;;5055215;28;20036;-44
2021/07/10 09:49:25;;;;;;;19.15;7.40;;;;;;;;;;5055668;28;20383;-45
2021/07/10 09:51:57;;;;;;;8.18;3.65;;;;;;;;;;5054366;28;20025;-45
2021/07/10 09:54:27;;;;;;;10.70;3.88;;;;;;;;;;5055480;28;20047;-45
2021/07/10 09:57:01;;;;;;;6.50;2.50;;;;;;;;;;5055381;28;20363;-45
2021/07/10 09:59:27;;;;;;;6.57;2.60;;;;;;;;;;5055136;28;20022;-45
2021/07/10 10:01:53;;;;;;;4.22;2.30;;;;;;;;;;5055028;28;20065;-45
2021/07/10 10:04:27;;;;;;;2.90;2.30;;;;;;;;;;5055248;28;20057;-46
2021/07/10 10:06:54;;;;;;;8.77;2.45;;;;;;;;;;5055059;28;20021;-45
2021/07/10 10:09:23;;;;;;;5.05;2.53;;;;;;;;;;5055146;28;20103;-45
2021/07/10 10:11:52;;;;;;;4.57;2.92;;;;;;;;;;5054939;28;20104;-45
2021/07/10 10:14:18;;;;;;;5.53;2.15;;;;;;;;;;5054681;28;20025;-46
2021/07/10 10:16:46;;;;;;;7.97;2.47;;;;;;;;;;5053575;28;20049;-44
2021/07/10 10:19:23;;;;;;;6.57;2.30;;;;;;;;;;5054946;28;20048;-45
2021/07/10 10:21:50;;;;;;;5.45;2.45;;;;;;;;;;5054696;28;20059;-46
2021/07/10 10:24:17;;;;;;;5.50;2.33;;;;;;;;;;5054803;28;20346;-45
2021/07/10 10:26:44;;;;;;;3.13;2.15;;;;;;;;;;5054687;28;20078;-45
2021/07/10 10:29:10;;;;;;;6.75;2.10;;;;;;;;;;5054748;28;20021;-44
2021/07/10 10:31:38;;;;;;;10.55;3.05;;;;;;;;;;5054507;28;20025;-46
2021/07/10 10:34:04;;;;;;;4.28;2.58;;;;;;;;;;5054576;28;20024;-46
2021/07/10 10:36:30;;;;;;;8.50;2.50;;;;;;;;;;5054650;28;20072;-45
2021/07/10 10:38:57;;;;;;;4.85;2.90;;;;;;;;;;5054527;28;20017;-45
2021/07/10 10:41:23;;;;;;;6.35;2.38;;;;;;;;;;5054408;28;20029;-45
2021/07/10 10:43:49;;;;;;;8.52;2.20;;;;;;;;;;5054210;28;20029;-45
2021/07/10 10:46:19;;;;;;;5.85;2.22;;;;;;;;;;5054341;28;20025;-46
2021/07/10 10:48:45;;;;;;;5.65;2.53;;;;;;;;;;5054358;28;20029;-46
2021/07/10 10:51:31;;;;;;;6.60;2.88;;;;;;;;;;5054299;28;20053;-46
2021/07/10 10:54:16;;;;;;;5.60;3.00;;;;;;;;;;5054209;28;20029;-45
2021/07/10 10:56:42;;;;;;;6.82;2.80;;;;;;;;;;5054271;28;20051;-46
2021/07/10 10:59:28;;;;;;;6.15;3.10;;;;;;;;;;5053725;28;20377;-46
2021/07/10 11:01:55;;;;;;;7.43;2.90;;;;;;;;;;5050029;28;20048;-46
2021/07/10 11:04:39;;;;;;;6.47;2.67;;;;;;;;;;5054035;28;20152;-45
2021/07/10 11:07:24;;;;;;;8.50;2.70;;;;;;;;;;5054112;28;20025;-46
2021/07/10 11:10:08;;;;;;;4.82;2.80;;;;;;;;;;5053918;28;20040;-46
2021/07/10 11:12:50;;;;;;;6.65;2.70;;;;;;;;;;5053918;28;20549;-45
2021/07/10 11:15:25;;;;;;;5.10;2.53;;;;;;;;;;5053719;28;20044;-46
2021/07/10 11:17:51;;;;;;;6.95;3.67;;;;;;;;;;5053700;28;20025;-46
2021/07/10 11:20:37;;;;;;;10.27;3.53;;;;;;;;;;5053737;28;20417;-43
2021/07/10 11:23:04;;;;;;;7.50;2.33;;;;;;;;;;5031626;28;20053;-43
2021/07/10 11:25:48;;;;;;;7.63;2.42;;;;;;;;;;5031468;28;20037;-44
2021/07/10 11:28:15;;;;;;;14.50;6.45;;;;;;;;;;5031423;28;20033;-44
2021/07/10 11:30:49;;;;;;;9.05;3.60;;;;;;;;;;5031290;28;20030;-41
2021/07/10 11:33:15;;;;;;;9.52;2.90;;;;;;;;;;5031369;28;20105;-42
2021/07/10 11:35:46;;;;;;;8.98;4.88;;;;;;;;;;5031353;28;20076;-43
2021/07/10 11:38:31;;;;;;;10.05;5.30;;;;;;;;;;5005159;28;20042;-42
2021/07/10 11:41:00;;;;;;;31.25;7.15;;;;;;;;;;5000465;28;20359;-42
2021/07/10 11:43:39;;;;;;;19.80;6.80;;;;;;;;;;4999704;28;20140;-42
2021/07/10 11:46:05;;;;;;;61.95;37.35;;;;;;;;;;4999740;28;20034;-42
2021/07/10 11:48:32;;;;;;;21.20;10.60;;;;;;;;;;5001155;28;21342;-44
2021/07/10 11:51:00;;;;;;;11.90;3.40;;;;;;;;;;5001069;28;20097;-42
2021/07/10 11:53:27;;;;;;;5.95;2.95;;;;;;;;;;5001034;28;20037;-42
2021/07/10 11:55:53;;;;;;;7.18;3.05;;;;;;;;;;4999768;28;20033;-43
2021/07/10 11:58:20;;;;;;;3.15;2.45;;;;;;;;;;4999778;28;20663;-42
2021/07/10 12:00:47;;;;;;;4.22;2.47;;;;;;;;;;5015493;28;20103;-42
2021/07/10 12:03:19;;;;;;;4.50;2.83;;;;;;;;;;5020734;28;20033;-44
2021/07/10 12:05:45;;;;;;;7.32;2.53;;;;;;;;;;5021993;28;20021;-44
2021/07/10 12:08:11;;;;;;;6.78;2.97;;;;;;;;;;5019895;28;20028;-43
2021/07/10 12:10:42;;;;;;;4.00;2.60;;;;;;;;;;5022714;28;20108;-44
2021/07/10 12:13:12;;;;;;;4.75;2.90;;;;;;;;;;5024983;28;20076;-41
2021/07/10 12:15:41;;;;;;;34.67;5.30;;;;;;;;;;5025622;28;20048;-44
2021/07/10 12:18:08;;;;;;;10.10;3.25;;;;;;;;;;5026369;28;20456;-43
2021/07/10 12:20:36;;;;;;;6.20;3.65;;;;;;;;;;5025465;28;20021;-43
2021/07/10 12:23:04;;;;;;;10.02;5.22;;;;;;;;;;5025016;28;20041;-45
2021/07/10 12:25:35;;;;;;;11.52;2.92;;;;;;;;;;5024700;28;20685;-43
2021/07/10 12:28:03;;;;;;;10.52;3.55;;;;;;;;;;5026140;28;20028;-41
2021/07/10 12:30:38;;;;;;;10.13;6.00;;;;;;;;;;5025081;28;20029;-42
2021/07/10 12:33:05;;;;;;;4.45;3.10;;;;;;;;;;5025739;28;20513;-44
2021/07/10 12:35:31;;;;;;;13.90;5.97;;;;;;;;;;5025056;28;20422;-42
2021/07/10 12:38:10;;;;;;;13.98;8.13;;;;;;;;;;5024771;28;20021;-42
2021/07/10 12:40:37;;;;;;;11.17;5.57;;;;;;;;;;5025766;28;20342;-42
2021/07/10 12:43:03;;;;;;;8.80;4.10;;;;;;;;;;5024740;28;20611;-42
2021/07/10 12:45:30;;;;;;;5.95;2.85;;;;;;;;;;5024531;28;20033;-41
2021/07/10 12:48:00;;;;;;;12.82;3.30;;;;;;;;;;5024330;28;20378;-42
2021/07/10 12:50:26;;;;;;;7.32;2.95;;;;;;;;;;5025535;28;20017;-42
2021/07/10 12:53:01;;;;;;;7.78;2.55;;;;;;;;;;5024733;28;20668;-42
2021/07/10 12:55:30;;;;;;;14.88;5.70;;;;;;;;;;5024969;28;20036;-42
2021/07/10 12:57:56;;;;;;;16.42;3.92;;;;;;;;;;5024245;28;20045;-43
2021/07/10 13:00:22;;;;;;;9.00;2.63;;;;;;;;;;5024493;28;20022;-43
2021/07/10 13:02:51;;;;;;;23.88;3.90;;;;;;;;;;5024191;28;20037;-43
2021/07/10 13:05:30;;;;;;;6.40;2.60;;;;;;;;;;5025454;28;20058;-43
2021/07/10 13:08:17;;;;;;;14.00;6.60;;;;;;;;;;5025422;28;20132;-42
2021/07/10 13:10:44;;;;;;;5.72;2.40;;;;;;;;;;5026610;28;20420;-43
2021/07/10 13:13:16;;;;;;;16.00;11.88;;;;;;;;;;5023942;28;20029;-43
2021/07/10 13:15:46;;;;;;;22.67;4.55;;;;;;;;;;5024570;28;20115;-43
2021/07/10 13:18:14;;;;;;;9.88;3.00;;;;;;;;;;5026306;28;20037;-43
2021/07/10 13:20:41;;;;;;;7.75;2.33;;;;;;;;;;5022992;28;20025;-43
2021/07/10 13:23:08;;;;;;;34.10;6.18;;;;;;;;;;5023567;28;20025;-42
2021/07/10 13:25:44;;;;;;;239.80;17.63;;;;;;;;;;5024350;28;20017;-43
2021/07/10 13:28:29;;;;;;;22.80;5.88;;;;;;;;;;5024276;28;20465;-43
2021/07/10 13:31:07;;;;;;;7.93;2.65;;;;;;;;;;5024604;28;20033;-43
2021/07/10 13:33:33;;;;;;;127.72;90.13;;;;;;;;;;5024290;28;20021;-43
2021/07/10 13:36:06;;;;;;;124.57;14.68;;;;;;;;;;5023236;28;20033;-44
2021/07/10 13:38:33;;;;;;;120.95;12.85;;;;;;;;;;5023476;28;20025;-44
2021/07/10 13:41:11;;;;;;;55.05;33.42;;;;;;;;;;5023551;28;20033;-42
2021/07/10 13:43:37;;;;;;;15.73;4.95;;;;;;;;;;5023401;28;20033;-43
2021/07/10 13:46:10;;;;;;;3.08;2.60;;;;;;;;;;5023465;28;20064;-44
2021/07/10 13:48:36;;;;;;;3.67;2.50;;;;;;;;;;5024268;28;20123;-43
2021/07/10 13:51:04;;;;;;;4.15;2.60;;;;;;;;;;5023442;28;20524;-44
2021/07/10 13:53:30;;;;;;;15.13;4.13;;;;;;;;;;5023302;28;20029;-44
2021/07/10 13:55:56;;;;;;;3.92;3.00;;;;;;;;;;5023285;28;20025;-43
2021/07/10 13:58:26;;;;;;;31.10;4.10;;;;;;;;;;5023026;28;20056;-43
2021/07/10 14:00:53;;;;;;;56.67;7.10;;;;;;;;;;5021225;28;20033;-42
2021/07/10 14:03:19;;;;;;;69.63;6.38;;;;;;;;;;5023091;28;20043;-42
2021/07/10 14:05:45;;;;;;;16.33;3.40;;;;;;;;;;5024192;28;20119;-43
2021/07/10 14:08:16;;;;;;;70.57;8.07;;;;;;;;;;5022930;28;20087;-42
2021/07/10 14:10:44;;;;;;;17.55;4.45;;;;;;;;;;5023269;28;20049;-42
2021/07/10 14:13:11;;;;;;;20.10;5.82;;;;;;;;;;5023364;28;20076;-42
2021/07/10 14:15:38;;;;;;;54.67;9.50;;;;;;;;;;5022879;28;20045;-44
2021/07/10 14:18:05;;;;;;;34.00;6.72;;;;;;;;;;5022625;28;20029;-43
2021/07/10 14:20:31;;;;;;;25.05;6.90;;;;;;;;;;5023579;28;20116;-42
2021/07/10 14:22:57;;;;;;;95.55;10.25;;;;;;;;;;5022795;28;20128;-45
2021/07/10 14:25:24;;;;;;;22.50;4.30;;;;;;;;;;5022891;28;20470;-41
2021/07/10 14:27:51;;;;;;;5.20;2.50;;;;;;;;;;5022647;28;20021;-44
2021/07/10 14:30:19;;;;;;;22.38;5.65;;;;;;;;;;5022520;28;20367;-44
2021/07/10 14:32:48;;;;;;;39.67;6.90;;;;;;;;;;5022886;28;20029;-41
2021/07/10 14:35:15;;;;;;;26.88;4.78;;;;;;;;;;5023774;28;20490;-42
2021/07/10 14:37:41;;;;;;;14.20;4.35;;;;;;;;;;5022593;28;20091;-41
2021/07/10 14:40:08;;;;;;;41.35;7.38;;;;;;;;;;5022424;28;20040;-41